Time;durP1;ratioP1;P1;durP2;ratioP2;P2;SDS_P1;SDS_P2;PMS_P1;PMS_P2;Temp;Humidity;BMP_temperature;BMP_pressure;BME280_temperature;BME280_humidity;BME280_pressure;Samples;Min_cycle;Max_cycle;Signal;HPM_P1;HPM_P2
2023/01/11 00:02:05;;;;;;;9.93;2.00;;;;;;;10.93;83.28;101027.72;5035245;28;20100;-45
2023/01/11 00:04:31;;;;;;;19.80;3.35;;;;;;;11.00;83.96;101026.72;5035526;28;20076;-46
2023/01/11 00:06:57;;;;;;;19.55;4.18;;;;;;;11.02;85.01;101035.38;5034997;28;20033;-45
2023/01/11 00:09:24;;;;;;;28.45;5.63;;;;;;;11.31;86.08;101041.34;5035494;28;20053;-45
2023/01/11 00:11:50;;;;;;;34.28;6.50;;;;;;;11.41;86.38;101054.34;5034976;28;20061;-46
2023/01/11 00:14:17;;;;;;;30.98;6.45;;;;;;;11.59;85.98;101044.66;5031082;28;20479;-45
2023/01/11 00:16:43;;;;;;;23.52;6.13;;;;;;;11.66;86.22;101041.97;5014508;28;20036;-48
2023/01/11 00:19:09;;;;;;;23.73;5.00;;;;;;;11.73;83.79;101048.16;5025211;28;20037;-45
2023/01/11 00:21:35;;;;;;;24.90;6.13;;;;;;;11.71;83.61;101052.88;5030309;28;20395;-45
2023/01/11 00:24:01;;;;;;;34.35;7.05;;;;;;;11.67;84.59;101050.84;5031962;28;20467;-45
2023/01/11 00:26:28;;;;;;;32.90;7.18;;;;;;;11.80;84.10;101050.81;5034047;28;20060;-44
2023/01/11 00:28:54;;;;;;;24.52;7.50;;;;;;;11.82;84.61;101054.13;5034339;28;20080;-46
2023/01/11 00:31:20;;;;;;;28.48;5.30;;;;;;;11.86;85.07;101052.69;5032995;28;20052;-44
2023/01/11 00:33:46;;;;;;;35.75;6.60;;;;;;;11.92;85.05;101070.63;5020000;28;20072;-47
2023/01/11 00:36:13;;;;;;;29.35;5.72;;;;;;;11.95;85.42;101058.66;5017893;28;20086;-44
2023/01/11 00:38:52;;;;;;;27.25;7.05;;;;;;;12.01;85.14;101060.50;5032025;28;20029;-44
2023/01/11 00:49:35;;;;;;;27.10;5.47;;;;;;;12.04;84.84;101084.22;5034912;28;20533;-44
2023/01/11 00:52:04;;;;;;;27.80;6.20;;;;;;;11.90;85.26;101091.47;5034443;28;20116;-45
2023/01/11 00:54:30;;;;;;;26.02;6.15;;;;;;;11.99;85.15;101092.06;5034213;28;20025;-47
2023/01/11 00:56:56;;;;;;;28.05;6.25;;;;;;;12.02;84.44;101097.03;5033891;28;20032;-46
2023/01/11 00:59:23;;;;;;;21.80;4.95;;;;;;;12.06;83.75;101101.78;5034459;28;20496;-45
2023/01/11 01:01:49;;;;;;;27.83;6.32;;;;;;;12.01;83.91;101108.81;5034716;28;20112;-46
2023/01/11 01:04:15;;;;;;;21.90;4.97;;;;;;;12.05;82.85;101113.56;5025973;28;20025;-48
2023/01/11 01:06:41;;;;;;;23.83;4.63;;;;;;;12.06;81.99;101109.81;5034002;28;20029;-45
2023/01/11 01:09:08;;;;;;;26.33;5.75;;;;;;;12.05;82.18;101118.09;5015151;28;20038;-45
2023/01/11 01:11:34;;;;;;;18.45;5.07;;;;;;;11.95;81.74;101115.81;5015613;28;20034;-49
2023/01/11 01:16:46;;;;;;;21.05;4.15;;;;;;;11.89;80.38;101120.16;5024445;28;20481;-48
2023/01/11 01:19:13;;;;;;;25.05;4.22;;;;;;;11.92;80.24;101118.91;5032756;28;20396;-50
2023/01/11 01:21:39;;;;;;;25.80;5.25;;;;;;;11.86;80.09;101120.56;5031666;28;20112;-50
2023/01/11 01:24:06;;;;;;;27.05;5.65;;;;;;;11.81;80.64;101127.56;5033748;28;20025;-47
2023/01/11 01:26:33;;;;;;;29.63;5.10;;;;;;;11.85;80.55;101129.66;5021994;28;20030;-47
2023/01/11 01:28:59;;;;;;;26.60;5.07;;;;;;;11.79;80.40;101127.78;5011262;28;20511;-47
2023/01/11 01:31:25;;;;;;;18.75;4.75;;;;;;;11.61;80.77;101127.56;5031937;28;20467;-47
2023/01/11 01:33:51;;;;;;;22.40;5.35;;;;;;;11.79;79.74;101135.81;5031379;28;20024;-47
2023/01/11 01:36:17;;;;;;;24.02;6.15;;;;;;;11.60;80.36;101145.50;5033385;28;20033;-46
2023/01/11 01:38:44;;;;;;;28.88;4.88;;;;;;;11.69;80.07;101147.97;5026385;28;20021;-46
2023/01/11 01:41:13;;;;;;;33.63;5.07;;;;;;;11.59;80.96;101154.56;5024394;28;20479;-46
2023/01/11 01:43:50;;;;;;;21.23;4.85;;;;;;;11.61;80.80;101162.44;5033489;28;20467;-46
2023/01/11 01:46:17;;;;;;;30.33;5.22;;;;;;;11.64;81.02;101164.69;5031804;28;20084;-44
2023/01/11 01:48:50;;;;;;;21.90;4.38;;;;;;;11.69;80.67;101159.53;5032991;28;20069;-45
2023/01/11 01:51:23;;;;;;;23.65;4.07;;;;;;;11.64;80.37;101173.53;5031711;28;20044;-48
2023/01/11 01:53:55;;;;;;;19.00;5.60;;;;;;;11.63;80.42;101176.44;5012008;28;20092;-45
2023/01/11 01:56:44;;;;;;;23.92;4.65;;;;;;;11.71;79.75;101186.94;5021413;28;20061;-45
2023/01/11 01:59:14;;;;;;;19.08;4.25;;;;;;;11.58;80.10;101185.09;5018422;28;20064;-45
2023/01/11 02:01:46;;;;;;;14.13;4.40;;;;;;;11.67;79.58;101177.69;5027484;28;20045;-45
2023/01/11 02:04:34;;;;;;;19.20;4.32;;;;;;;11.71;79.61;101192.31;5033059;28;20109;-45
2023/01/11 02:07:17;;;;;;;17.42;4.78;;;;;;;11.57;79.89;101190.66;5031704;28;20451;-49
2023/01/11 02:09:46;;;;;;;14.60;4.35;;;;;;;11.53;80.42;101194.78;5032511;28;20025;-46
2023/01/11 02:12:14;;;;;;;16.90;4.07;;;;;;;11.53;81.00;101181.38;5032981;28;20112;-45
2023/01/11 02:14:42;;;;;;;21.58;5.35;;;;;;;11.50;81.44;101192.53;5032758;28;20104;-45
2023/01/11 02:17:09;;;;;;;17.90;4.88;;;;;;;11.52;81.25;101185.91;5030977;28;20029;-49
2023/01/11 02:19:56;;;;;;;24.30;6.22;;;;;;;11.52;81.53;101185.91;5031842;28;20029;-48
2023/01/11 02:22:46;;;;;;;28.33;5.43;;;;;;;11.61;81.18;101197.28;5032266;28;20021;-47
2023/01/11 02:25:37;;;;;;;26.98;6.45;;;;;;;11.51;81.73;101207.56;5022167;28;20037;-49
2023/01/11 02:28:22;;;;;;;23.13;4.82;;;;;;;11.51;82.02;101211.06;5013051;28;20384;-47
2023/01/11 02:31:11;;;;;;;;;;;;;;;11.58;82.01;101221.81;5020674;28;20030;-47
2023/01/11 02:34:15;;;;;;;23.73;5.63;;;;;;;11.53;82.04;101230.44;5006974;28;19960;-50
2023/01/11 02:36:45;;;;;;;29.73;5.53;;;;;;;11.45;82.59;101232.50;5023935;28;20029;-47
2023/01/11 02:39:36;;;;;;;24.90;4.93;;;;;;;11.50;82.41;101230.03;5031875;28;20025;-51
2023/01/11 02:45:25;;;;;;;20.58;5.43;;;;;;;11.46;82.89;101244.88;5028050;28;20036;-50
2023/01/11 02:48:25;;;;;;;29.27;5.83;;;;;;;11.49;82.73;101248.00;5016389;28;20088;-48
2023/01/11 02:51:10;;;;;;;22.77;6.55;;;;;;;11.58;82.35;101252.13;5029565;28;20463;-48
2023/01/11 02:53:43;;;;;;;21.48;5.28;;;;;;;11.55;82.50;101260.59;5031630;28;20121;-50
2023/01/11 02:56:15;;;;;;;32.92;6.07;;;;;;;11.55;82.59;101267.81;5029063;28;20143;-50
2023/01/11 02:58:44;;;;;;;25.50;6.20;;;;;;;11.55;82.88;101262.44;5030884;28;20503;-50
2023/01/11 03:01:11;;;;;;;27.55;6.47;;;;;;;11.47;83.45;101279.50;5029935;28;20065;-48
2023/01/11 03:03:38;;;;;;;48.75;7.22;;;;;;;11.56;83.07;101275.63;5031277;28;20029;-51
2023/01/11 03:06:26;;;;;;;31.35;5.75;;;;;;;11.56;83.06;101281.00;5030198;28;20036;-48
2023/01/11 03:09:19;;;;;;;25.92;5.75;;;;;;;11.54;82.82;101275.00;5031169;28;20040;-50
2023/01/11 03:14:58;;;;;;;23.42;5.30;;;;;;;11.50;82.93;101280.97;5011566;28;20040;-50
2023/01/11 03:17:49;;;;;;;21.85;5.40;;;;;;;11.57;82.99;101281.81;5015613;28;20025;-45
2023/01/11 03:20:18;;;;;;;22.58;5.45;;;;;;;11.63;82.26;101279.16;5030085;28;20033;-49
2023/01/11 03:23:02;;;;;;;23.25;5.93;;;;;;;11.57;82.97;101281.81;5031357;28;20463;-50
2023/01/11 03:26:05;;;;;;;25.95;5.75;;;;;;;11.54;82.78;101287.56;5029615;28;20399;-50
2023/01/11 03:28:43;;;;;;;26.35;5.55;;;;;;;11.60;82.71;101282.25;5012267;28;20034;-49
2023/01/11 03:31:29;;;;;;;30.77;5.18;;;;;;;11.53;83.07;101293.97;5019839;28;20124;-51
2023/01/11 03:34:26;;;;;;;33.22;6.38;;;;;;;11.63;82.46;101289.06;5031220;28;20025;-48
2023/01/11 03:37:00;;;;;;;31.25;5.97;;;;;;;11.57;82.74;101296.03;5023464;28;20385;-48
2023/01/11 03:39:50;;;;;;;31.17;6.10;;;;;;;11.63;82.77;101302.47;5029620;28;20080;-50
2023/01/11 03:42:21;;;;;;;33.40;6.03;;;;;;;11.55;83.10;101305.34;5015923;28;20061;-50
2023/01/11 03:44:52;;;;;;;24.95;5.60;;;;;;;11.62;82.83;101306.19;5017032;28;20156;-50
2023/01/11 03:47:23;;;;;;;26.48;6.03;;;;;;;11.51;83.17;101312.13;5025799;28;20060;-50
2023/01/11 03:50:11;;;;;;;26.98;5.18;;;;;;;11.57;83.08;101305.94;5011683;28;20357;-48
2023/01/11 03:52:41;;;;;;;28.27;5.55;;;;;;;11.54;82.62;101304.47;5030949;28;20083;-51
2023/01/11 03:55:11;;;;;;;30.33;5.50;;;;;;;11.54;82.63;101309.84;5029740;28;20039;-50
2023/01/11 03:57:46;;;;;;;34.50;6.30;;;;;;;11.51;82.52;101318.31;5022082;28;20421;-48
2023/01/11 04:00:12;;;;;;;23.88;6.28;;;;;;;11.43;82.37;101317.63;5016071;28;20092;-50
2023/01/11 04:02:40;;;;;;;30.25;6.15;;;;;;;11.33;82.54;101313.50;5031294;28;20113;-46
2023/01/11 04:05:09;;;;;;;26.38;5.78;;;;;;;11.48;80.68;101307.97;5030138;28;20102;-48
2023/01/11 04:07:35;;;;;;;22.83;4.85;;;;;;;11.48;80.19;101317.88;5030654;28;20029;-48
2023/01/11 04:10:02;;;;;;;24.38;5.05;;;;;;;11.41;79.04;101317.84;5028371;28;20511;-48
2023/01/11 04:12:28;;;;;;;23.52;4.47;;;;;;;11.41;78.12;101319.69;5029867;28;20045;-46
2023/01/11 04:14:55;;;;;;;17.17;4.28;;;;;;;11.41;77.46;101323.19;5021230;28;20033;-49
2023/01/11 04:17:21;;;;;;;26.30;4.60;;;;;;;11.27;77.08;101329.50;5019579;28;20541;-49
2023/01/11 04:19:48;;;;;;;18.35;5.35;;;;;;;11.33;77.21;101326.91;5010696;28;20034;-49
2023/01/11 04:22:14;;;;;;;15.07;4.35;;;;;;;11.13;78.29;101334.00;5012643;28;20030;-50
2023/01/11 04:24:40;;;;;;;17.88;4.78;;;;;;;11.10;78.56;101339.72;5011307;28;20448;-50
2023/01/11 04:27:06;;;;;;;14.30;4.20;;;;;;;11.10;78.13;101343.25;5025819;28;20033;-51
2023/01/11 04:29:33;;;;;;;11.15;3.33;;;;;;;11.01;77.63;101339.06;5030524;28;20108;-49
2023/01/11 04:31:59;;;;;;;15.13;3.10;;;;;;;10.79;77.19;101346.34;5029845;28;20127;-48
2023/01/11 04:34:25;;;;;;;8.63;2.38;;;;;;;10.73;77.21;101355.16;5012349;28;20496;-49
2023/01/11 04:36:51;;;;;;;7.72;2.10;;;;;;;10.71;76.94;101356.34;5025245;28;20419;-50
2023/01/11 04:39:18;;;;;;;4.28;1.88;;;;;;;10.69;76.13;101353.06;5026310;28;20021;-48
2023/01/11 04:44:29;;;;;;;8.95;2.30;;;;;;;10.57;76.13;101347.41;5032321;28;20495;-49
2023/01/11 04:46:55;;;;;;;10.48;2.15;;;;;;;10.58;75.87;101367.78;5033527;28;20037;-48
2023/01/11 04:49:21;;;;;;;7.13;2.03;;;;;;;10.69;74.52;101361.91;5029046;28;20041;-48
2023/01/11 04:51:47;;;;;;;6.70;1.65;;;;;;;10.74;74.99;101375.56;5023819;28;20029;-49
2023/01/11 04:54:15;;;;;;;7.95;2.20;;;;;;;10.92;74.74;101379.59;5033579;28;20032;-52
2023/01/11 04:56:41;;;;;;;6.63;2.47;;;;;;;10.85;74.52;101390.25;5025729;28;20026;-48
2023/01/11 04:59:08;;;;;;;8.48;2.28;;;;;;;10.96;74.83;101387.03;5016831;28;20539;-52
2023/01/11 05:01:35;;;;;;;8.80;2.78;;;;;;;11.03;74.49;101379.88;5034260;28;20060;-51
2023/01/11 05:04:01;;;;;;;8.15;2.30;;;;;;;11.12;74.81;101393.97;5032561;28;20419;-52
2023/01/11 05:06:28;;;;;;;9.02;2.53;;;;;;;11.02;74.91;101393.47;5033807;28;20029;-51
2023/01/11 05:08:54;;;;;;;9.02;2.80;;;;;;;11.16;75.08;101403.28;5032710;28;20108;-54
2023/01/11 05:11:20;;;;;;;15.13;3.45;;;;;;;11.25;74.73;101407.44;5029694;28;20053;-51
2023/01/11 05:13:47;;;;;;;11.18;2.78;;;;;;;11.28;74.77;101407.06;5014290;28;20041;-49
2023/01/11 05:16:24;;;;;;;13.43;2.65;;;;;;;11.27;75.71;101421.47;5031743;28;20040;-51
2023/01/11 05:18:55;;;;;;;15.90;2.85;;;;;;;11.18;76.97;101443.25;5033833;28;20128;-49
2023/01/11 05:21:24;;;;;;;10.30;3.15;;;;;;;11.31;76.79;101449.53;5032595;28;20037;-52
2023/01/11 05:23:51;;;;;;;14.32;3.30;;;;;;;11.43;76.93;101446.28;5033918;28;20071;-51
2023/01/11 05:26:22;;;;;;;18.33;3.28;;;;;;;11.24;77.67;101445.97;5029988;28;20066;-50
2023/01/11 05:28:50;;;;;;;14.45;3.35;;;;;;;11.30;77.90;101453.22;5032094;28;20036;-49
2023/01/11 05:31:16;;;;;;;14.20;3.63;;;;;;;11.38;77.23;101449.56;5017457;28;20433;-47
2023/01/11 05:33:43;;;;;;;15.18;2.70;;;;;;;11.43;75.21;101446.28;5015940;28;20816;-49
2023/01/11 05:36:19;;;;;;;8.02;2.80;;;;;;;11.31;74.25;101459.41;5025086;28;20580;-48
2023/01/11 05:38:47;;;;;;;10.43;2.38;;;;;;;11.25;73.25;101469.06;5014084;28;20033;-49
2023/01/11 05:41:14;;;;;;;11.13;2.50;;;;;;;11.15;73.98;101465.91;5024472;28;20034;-48
2023/01/11 05:46:27;;;;;;;6.90;2.30;;;;;;;11.15;73.49;101473.94;5021521;28;20423;-48
2023/01/11 05:48:57;;;;;;;10.10;2.15;;;;;;;11.05;73.90;101481.50;5029089;28;20033;-51
2023/01/11 05:51:24;;;;;;;11.10;2.55;;;;;;;11.04;74.50;101491.34;5031933;28;20037;-50
2023/01/11 05:53:52;;;;;;;11.73;2.50;;;;;;;11.06;74.93;101488.50;5031163;28;20129;-51
2023/01/11 05:56:20;;;;;;;10.55;3.10;;;;;;;11.19;76.27;101495.81;5031052;28;20042;-47
2023/01/11 05:58:48;;;;;;;19.23;3.42;;;;;;;11.21;76.88;101497.28;5031217;28;20021;-51
2023/01/11 06:01:15;;;;;;;15.60;3.17;;;;;;;11.18;77.63;101497.66;5018419;28;20033;-48
2023/01/11 06:03:42;;;;;;;15.88;3.28;;;;;;;11.08;77.72;101505.22;5012546;28;20044;-50
2023/01/11 06:06:08;;;;;;;12.88;3.55;;;;;;;11.16;77.59;101498.88;5032196;28;20021;-50
2023/01/11 06:08:35;;;;;;;14.30;3.10;;;;;;;10.94;77.95;101490.03;5032748;28;20532;-50
2023/01/11 06:11:01;;;;;;;9.75;2.50;;;;;;;10.89;77.61;101505.88;5026465;28;20095;-47
2023/01/11 06:13:28;;;;;;;14.88;2.97;;;;;;;10.97;77.68;101508.41;5012942;28;20100;-48
2023/01/11 06:16:04;;;;;;;11.93;2.78;;;;;;;10.95;77.84;101502.44;5028709;28;20041;-46
2023/01/11 06:18:36;;;;;;;13.15;2.88;;;;;;;10.94;79.50;101500.75;5030806;28;20025;-51
2023/01/11 06:21:04;;;;;;;14.77;3.08;;;;;;;10.99;79.64;101509.03;5011172;28;20037;-49
2023/01/11 06:23:32;;;;;;;11.82;3.58;;;;;;;10.95;80.46;101513.13;5014523;28;20040;-50
2023/01/11 06:26:03;;;;;;;10.70;3.67;;;;;;;10.88;80.71;101518.41;5015543;28;20018;-51
2023/01/11 06:28:30;;;;;;;11.43;3.35;;;;;;;10.98;80.47;101542.19;5013840;28;20639;-49
2023/01/11 06:30:57;;;;;;;17.35;4.22;;;;;;;10.99;80.97;101541.19;5011221;28;20033;-51
2023/01/11 06:33:26;;;;;;;18.75;4.55;;;;;;;11.07;81.32;101566.00;5016003;28;20108;-48
2023/01/11 06:35:53;;;;;;;17.75;4.03;;;;;;;10.97;81.90;101564.66;5021067;28;20061;-51
2023/01/11 06:38:21;;;;;;;14.77;3.78;;;;;;;11.14;81.22;101565.22;5025840;28;20029;-48
2023/01/11 06:41:02;;;;;;;17.05;3.67;;;;;;;11.15;81.79;101565.03;5024810;28;20479;-46
2023/01/11 06:43:29;;;;;;;13.18;3.58;;;;;;;11.14;82.21;101546.47;5031794;28;20468;-46
2023/01/11 06:45:57;;;;;;;12.10;4.07;;;;;;;11.22;82.06;101532.97;5019264;28;20042;-46
2023/01/11 06:48:25;;;;;;;21.25;4.60;;;;;;;11.34;82.08;101593.88;5031999;28;20132;-50
2023/01/11 06:50:58;;;;;;;10.25;2.83;;;;;;;10.97;83.07;101586.91;5031122;28;20026;-46
2023/01/11 06:53:26;;;;;;;10.77;1.90;;;;;;;10.95;81.93;101582.78;5012674;28;20152;-48
2023/01/11 06:55:54;;;;;;;2.88;0.90;;;;;;;10.57;81.77;101591.00;5011782;28;20083;-46
2023/01/11 06:58:22;;;;;;;8.23;1.10;;;;;;;10.50;83.00;101596.28;5024309;28;20059;-49
2023/01/11 07:00:50;;;;;;;2.58;0.93;;;;;;;10.39;83.69;101598.59;5011691;28;20417;-48
2023/01/11 07:03:16;;;;;;;10.05;1.77;;;;;;;10.45;84.68;101619.25;5029315;28;20025;-48
2023/01/11 07:05:44;;;;;;;5.22;1.48;;;;;;;10.07;86.90;101608.63;5028511;28;20021;-50
2023/01/11 07:08:10;;;;;;;4.93;1.63;;;;;;;10.12;86.95;101603.56;5028291;28;20030;-49
2023/01/11 07:10:38;;;;;;;3.88;1.30;;;;;;;10.07;87.37;101605.94;5031259;28;20037;-47
2023/01/11 07:13:04;;;;;;;4.85;1.40;;;;;;;10.10;87.09;101610.91;5031653;28;20033;-48
2023/01/11 07:15:30;;;;;;;7.30;1.80;;;;;;;10.15;87.23;101599.66;5031743;28;20029;-49
2023/01/11 07:17:58;;;;;;;8.48;1.90;;;;;;;9.32;92.33;101580.09;5030711;28;20025;-49
2023/01/11 07:20:26;;;;;;;3.40;1.42;;;;;;;9.26;93.85;101576.28;5031264;28;20115;-45
2023/01/11 07:22:57;;;;;;;7.55;1.77;;;;;;;9.47;93.30;101585.47;5030829;28;20033;-46
2023/01/11 07:25:24;;;;;;;6.68;2.05;;;;;;;9.15;95.78;101573.22;5031284;28;20573;-48
2023/01/11 07:28:04;;;;;;;5.75;1.70;;;;;;;9.11;96.49;101578.09;5030893;28;20109;-46
2023/01/11 07:30:33;;;;;;;4.38;1.42;;;;;;;9.18;96.37;101580.88;5031356;28;20037;-48
2023/01/11 07:33:00;;;;;;;4.28;1.65;;;;;;;9.34;95.74;101587.94;5031136;28;20025;-46
2023/01/11 07:35:27;;;;;;;6.93;1.92;;;;;;;9.44;94.87;101592.03;5030953;28;20136;-47
2023/01/11 07:37:53;;;;;;;9.55;2.00;;;;;;;9.42;95.15;101588.69;5030999;28;20072;-50
2023/01/11 07:40:19;;;;;;;6.88;1.52;;;;;;;9.65;93.88;101591.31;5031144;28;20422;-51
2023/01/11 07:45:36;;;;;;;6.35;1.88;;;;;;;9.90;92.17;101583.06;5031653;28;20127;-47
2023/01/11 07:48:07;;;;;;;6.30;1.98;;;;;;;9.96;91.50;101577.81;5030968;28;20037;-49
2023/01/11 07:50:33;;;;;;;9.10;2.60;;;;;;;10.05;91.24;101567.88;5031497;28;20445;-48
2023/01/11 07:52:59;;;;;;;4.20;2.00;;;;;;;10.10;91.01;101578.81;5030705;28;20431;-47
2023/01/11 07:55:25;;;;;;;13.00;2.78;;;;;;;10.10;90.08;101586.84;5031049;28;20112;-47
2023/01/11 07:57:56;;;;;;;6.60;1.60;;;;;;;10.20;89.99;101584.72;5030572;28;20123;-47
2023/01/11 08:00:23;;;;;;;6.70;2.65;;;;;;;10.29;89.66;101588.19;5030856;28;20060;-46
2023/01/11 08:02:53;;;;;;;8.85;2.50;;;;;;;10.35;89.23;101592.78;5031088;28;20057;-52
2023/01/11 08:05:20;;;;;;;8.55;2.50;;;;;;;10.32;89.22;101598.50;5031092;28;20022;-49
2023/01/11 08:07:47;;;;;;;6.07;2.65;;;;;;;10.36;89.22;101591.75;5030573;28;20032;-48
2023/01/11 08:10:14;;;;;;;7.88;2.70;;;;;;;10.43;88.89;101594.50;5030843;28;20064;-47
2023/01/11 08:15:30;;;;;;;7.32;3.03;;;;;;;10.50;88.57;101595.44;5031534;28;20056;-48
2023/01/11 08:17:57;;;;;;;10.77;3.45;;;;;;;10.63;88.15;101595.59;5030806;28;20079;-50
2023/01/11 08:20:25;;;;;;;11.27;3.03;;;;;;;10.65;87.69;101598.91;5034343;28;20041;-51
2023/01/11 08:22:52;;;;;;;12.95;3.80;;;;;;;10.49;88.42;101594.63;5034713;28;20029;-47
2023/01/11 08:25:19;;;;;;;10.13;3.55;;;;;;;10.70;87.45;101582.28;5034515;28;20084;-47
2023/01/11 08:27:45;;;;;;;9.63;2.83;;;;;;;10.64;87.60;101578.50;5034160;28;20525;-48
2023/01/11 08:30:12;;;;;;;12.63;3.33;;;;;;;10.55;87.49;101583.16;5034355;28;20038;-48
2023/01/11 08:32:38;;;;;;;15.20;2.58;;;;;;;10.64;87.13;101572.34;5035101;28;20123;-51
2023/01/11 08:35:05;;;;;;;16.52;3.60;;;;;;;10.61;86.65;101584.25;5034363;28;20045;-47
2023/01/11 08:37:31;;;;;;;17.70;3.95;;;;;;;10.65;86.45;101579.34;5034354;28;20033;-48
2023/01/11 08:39:57;;;;;;;17.38;3.67;;;;;;;10.56;86.63;101584.81;5034446;28;20032;-47
2023/01/11 08:42:24;;;;;;;18.02;3.28;;;;;;;10.65;86.78;101579.34;5034173;28;20538;-47
2023/01/11 08:44:50;;;;;;;12.75;2.90;;;;;;;10.69;86.38;101573.44;5034402;28;20386;-49
2023/01/11 08:47:16;;;;;;;14.13;3.28;;;;;;;10.58;86.71;101571.25;5033704;28;20182;-48
2023/01/11 08:49:43;;;;;;;15.27;2.78;;;;;;;10.47;86.83;101569.88;5034318;28;20036;-49
2023/01/11 08:52:13;;;;;;;10.98;2.83;;;;;;;10.58;85.94;101581.94;5033999;28;20068;-49
2023/01/11 08:54:40;;;;;;;16.35;3.25;;;;;;;10.64;86.57;101569.66;5034176;28;20036;-51
2023/01/11 08:57:07;;;;;;;13.65;2.97;;;;;;;10.65;86.32;101572.13;5033963;28;20471;-51
2023/01/11 08:59:33;;;;;;;15.32;3.10;;;;;;;10.51;86.65;101575.69;5033558;28;20038;-50
2023/01/11 09:02:01;;;;;;;10.13;2.95;;;;;;;10.63;85.87;101570.69;5033831;28;20029;-51
2023/01/11 09:04:27;;;;;;;14.00;2.88;;;;;;;10.55;85.54;101575.13;5033746;28;20029;-49
2023/01/11 09:06:54;;;;;;;17.98;3.55;;;;;;;10.72;85.02;101581.09;5033867;28;20518;-51
2023/01/11 09:09:20;;;;;;;17.17;3.85;;;;;;;10.67;84.77;101570.13;5033624;28;20438;-49
2023/01/11 09:11:52;;;;;;;14.38;2.97;;;;;;;10.56;84.86;101574.13;5033650;28;20030;-48
2023/01/11 09:14:19;;;;;;;9.25;2.45;;;;;;;10.67;84.87;101572.78;5033672;28;20087;-47
2023/01/11 09:16:45;;;;;;;10.48;2.50;;;;;;;10.57;84.67;101564.22;5033227;28;20045;-51
2023/01/11 09:19:12;;;;;;;14.88;2.67;;;;;;;10.69;84.12;101557.38;5033748;28;20087;-51
2023/01/11 09:21:38;;;;;;;14.85;3.17;;;;;;;10.67;84.01;101561.25;5033626;28;20471;-49
2023/01/11 09:24:05;;;;;;;15.55;2.47;;;;;;;10.74;84.07;101572.88;5033642;28;20033;-50
2023/01/11 09:26:31;;;;;;;9.80;2.15;;;;;;;10.71;83.71;101581.25;5033277;28;20087;-51
2023/01/11 09:28:57;;;;;;;13.00;2.97;;;;;;;10.63;83.72;101576.84;5033004;28;20514;-52
2023/01/11 09:31:24;;;;;;;12.27;2.60;;;;;;;10.59;83.72;101586.28;5033521;28;20471;-50
2023/01/11 09:33:50;;;;;;;11.75;2.83;;;;;;;10.59;83.84;101588.94;5033335;28;20052;-49
2023/01/11 09:36:20;;;;;;;10.80;3.38;;;;;;;10.61;83.30;101589.63;5032971;28;20021;-51
2023/01/11 09:38:49;;;;;;;13.70;2.75;;;;;;;10.66;83.30;101589.03;5033378;28;20100;-48
2023/01/11 09:41:22;;;;;;;5.93;2.25;;;;;;;10.83;82.83;101579.78;5034125;28;20091;-50
2023/01/11 09:44:01;;;;;;;9.73;2.50;;;;;;;10.82;82.38;101578.09;5033855;28;20071;-48
2023/01/11 09:46:29;;;;;;;11.93;2.53;;;;;;;10.73;82.21;101574.72;5033374;28;20029;-46
2023/01/11 09:49:02;;;;;;;14.35;3.22;;;;;;;10.71;81.85;101573.22;5033232;28;20064;-47
2023/01/11 09:51:36;;;;;;;12.15;2.80;;;;;;;10.78;82.03;101579.50;5033457;28;20107;-47
2023/01/11 09:54:06;;;;;;;10.98;2.40;;;;;;;10.83;81.63;101569.06;5033112;28;20120;-47
2023/01/11 09:56:56;;;;;;;12.35;2.72;;;;;;;10.74;81.73;101567.50;5032639;28;20026;-47
2023/01/11 09:59:43;;;;;;;11.13;2.38;;;;;;;10.86;81.43;101559.81;5032728;28;20036;-46
2023/01/11 10:02:30;;;;;;;8.07;2.25;;;;;;;10.84;81.40;101557.31;5032680;28;20468;-50
2023/01/11 10:05:25;;;;;;;13.05;2.72;;;;;;;10.70;81.30;101564.38;5015014;28;20048;-49
2023/01/11 10:08:24;;;;;;;8.40;2.22;;;;;;;10.79;80.96;101568.59;5012009;28;20034;-50
2023/01/11 10:11:11;;;;;;;10.40;2.20;;;;;;;10.76;81.94;101577.00;5012562;28;20026;-47
2023/01/11 10:14:02;;;;;;;10.38;2.25;;;;;;;10.75;81.26;101564.63;5012857;28;20018;-46
2023/01/11 10:17:06;;;;;;;15.25;3.25;;;;;;;10.88;81.85;101576.50;5012748;28;20033;-48
2023/01/11 10:19:47;;;;;;;9.55;2.45;;;;;;;10.86;81.13;101590.09;4982222;28;20495;-46
2023/01/11 10:22:22;;;;;;;12.20;2.55;;;;;;;10.91;80.79;101592.22;5012327;28;20061;-46
2023/01/11 10:25:17;;;;;;;10.68;2.50;;;;;;;10.83;80.77;101601.19;5012811;28;20060;-48
2023/01/11 10:28:21;;;;;;;10.90;2.55;;;;;;;10.88;80.99;101605.97;5012089;28;20026;-47
2023/01/11 10:42:09;;;;;;;6.80;2.17;;;;;;;10.95;80.24;101617.59;5011570;28;20041;-51
2023/01/11 10:44:46;;;;;;;9.05;2.00;;;;;;;11.00;79.95;101599.13;5012021;28;20051;-51
2023/01/11 10:47:18;;;;;;;9.57;2.75;;;;;;;11.08;79.58;101609.69;5011823;28;20022;-47
2023/01/11 10:49:54;;;;;;;7.85;2.13;;;;;;;11.20;79.31;101608.16;5012011;28;20071;-48
2023/01/11 10:52:31;;;;;;;8.88;2.38;;;;;;;11.15;78.78;101618.63;5012460;28;20030;-47
2023/01/11 10:54:59;;;;;;;11.70;1.80;;;;;;;10.99;79.63;101617.03;5011662;28;20030;-46
2023/01/11 10:57:51;;;;;;;11.43;2.33;;;;;;;10.94;79.42;101616.78;4998753;28;20030;-49
2023/01/11 11:00:32;;;;;;;9.95;3.13;;;;;;;11.03;78.64;101618.28;5031578;28;20041;-47
2023/01/11 11:03:11;;;;;;;9.68;2.40;;;;;;;11.03;78.16;101618.28;5031938;28;20356;-49
2023/01/11 11:06:17;;;;;;;9.00;1.88;;;;;;;11.01;78.54;101628.38;5031503;28;20029;-50
2023/01/11 11:08:49;;;;;;;5.82;1.35;;;;;;;11.01;77.65;101627.56;5017999;28;20091;-49
2023/01/11 11:11:25;;;;;;;9.05;2.10;;;;;;;11.17;77.77;101629.16;5031656;28;20040;-47
2023/01/11 11:14:18;;;;;;;5.30;1.65;;;;;;;11.26;76.26;101625.31;5031560;28;20395;-47
2023/01/11 11:16:55;;;;;;;6.80;1.83;;;;;;;11.04;77.29;101621.81;4993455;28;20037;-47
2023/01/11 11:19:25;;;;;;;7.90;2.08;;;;;;;11.06;76.91;101617.09;5031354;28;20391;-49
2023/01/11 11:21:52;;;;;;;6.13;1.88;;;;;;;11.19;76.13;101613.72;5031586;28;20033;-50
2023/01/11 11:24:43;;;;;;;9.23;2.15;;;;;;;11.06;76.29;101609.06;5031446;28;20031;-50
2023/01/11 11:27:26;;;;;;;10.20;1.85;;;;;;;11.08;75.43;101605.16;5030932;28;20025;-50
2023/01/11 11:29:55;;;;;;;10.57;2.30;;;;;;;11.06;75.17;101606.38;5031420;28;20037;-50
2023/01/11 11:32:27;;;;;;;8.30;1.65;;;;;;;11.11;76.01;101612.00;5031401;28;20388;-47
2023/01/11 11:34:54;;;;;;;8.68;1.88;;;;;;;11.00;75.40;101602.63;5031134;28;20021;-47
2023/01/11 11:37:24;;;;;;;6.25;1.83;;;;;;;11.03;75.38;101607.56;5030912;28;20040;-50
2023/01/11 11:39:53;;;;;;;5.40;2.25;;;;;;;11.11;75.68;101603.97;5031567;28;20159;-49
2023/01/11 11:42:20;;;;;;;6.57;1.50;;;;;;;11.02;76.72;101605.09;5031048;28;20510;-50
2023/01/11 11:45:08;;;;;;;11.63;1.83;;;;;;;10.88;77.18;101611.31;5031430;28;20041;-49
2023/01/11 11:47:35;;;;;;;6.55;1.70;;;;;;;10.93;76.75;101612.41;5030515;28;20042;-50
2023/01/11 11:50:37;;;;;;;9.40;2.22;;;;;;;10.94;76.84;101619.44;5031316;28;20033;-49
2023/01/11 11:53:05;;;;;;;6.05;1.75;;;;;;;10.91;76.76;101609.09;4933757;29;20051;-49
2023/01/11 11:55:34;;;;;;;11.73;2.80;;;;;;;10.66;78.17;101610.44;5015841;28;20392;-49
2023/01/11 11:58:07;;;;;;;8.27;1.73;;;;;;;10.73;78.31;101609.53;5034791;28;20163;-49
2023/01/11 12:00:49;;;;;;;7.30;2.20;;;;;;;10.76;78.07;101609.13;5035278;28;20052;-49
2023/01/11 12:03:31;;;;;;;7.43;1.85;;;;;;;10.63;80.13;101617.03;5035474;28;20033;-49
2023/01/11 12:06:01;;;;;;;10.02;2.28;;;;;;;10.79;80.04;101606.09;5034707;28;20075;-50
2023/01/11 12:08:30;;;;;;;11.52;2.00;;;;;;;10.76;80.52;101605.63;5034937;28;20033;-50
2023/01/11 12:11:00;;;;;;;12.23;1.80;;;;;;;10.75;80.67;101607.47;5034587;28;20080;-48
2023/01/11 12:13:38;;;;;;;13.80;2.40;;;;;;;10.84;78.29;101611.72;5034254;28;20035;-47
2023/01/11 12:16:19;;;;;;;12.93;2.30;;;;;;;10.58;78.70;101611.41;5034669;28;20033;-48
2023/01/11 12:18:45;;;;;;;9.02;1.98;;;;;;;10.73;78.23;101614.88;5034725;28;20025;-48
2023/01/11 12:21:23;;;;;;;14.80;2.17;;;;;;;10.69;77.38;101610.09;5034746;28;20022;-51